Time;durP1;ratioP1;P1;durP2;ratioP2;P2;SDS_P1;SDS_P2;PMS_P1;PMS_P2;Temp;Humidity;BMP_temperature;BMP_pressure;BME280_temperature;BME280_humidity;BME280_pressure;Samples;Min_cycle;Max_cycle;Signal;HPM_P1;HPM_P2
2022/07/31 00:00:31;;;;;;;7.70;5.30;;;;;;;;;;5113841;28;20540;-61
2022/07/31 00:02:59;;;;;;;5.77;4.63;;;;;;;;;;5113980;28;20477;-61
2022/07/31 00:05:26;;;;;;;7.10;5.40;;;;;;;;;;5113594;28;20446;-61
2022/07/31 00:07:54;;;;;;;5.50;4.90;;;;;;;;;;5113465;28;20507;-60
2022/07/31 00:10:21;;;;;;;8.43;4.80;;;;;;;;;;5113300;28;20816;-60
2022/07/31 00:12:48;;;;;;;5.20;4.70;;;;;;;;;;5113489;28;20488;-60
2022/07/31 00:15:15;;;;;;;6.40;5.50;;;;;;;;;;5113359;28;20484;-60
2022/07/31 00:17:42;;;;;;;5.70;4.90;;;;;;;;;;5113217;28;20782;-61
2022/07/31 00:20:13;;;;;;;5.50;5.00;;;;;;;;;;5113408;28;20446;-60
2022/07/31 00:22:40;;;;;;;5.40;4.90;;;;;;;;;;5113222;28;20480;-60
2022/07/31 00:25:07;;;;;;;7.20;4.83;;;;;;;;;;5113446;28;20975;-60
2022/07/31 00:27:34;;;;;;;8.77;4.80;;;;;;;;;;5113400;28;20449;-60
2022/07/31 00:30:01;;;;;;;5.33;4.83;;;;;;;;;;5113264;28;20816;-60
2022/07/31 00:32:28;;;;;;;5.70;5.20;;;;;;;;;;5113162;28;20454;-60
2022/07/31 00:34:55;;;;;;;6.37;5.00;;;;;;;;;;5113673;28;20472;-60
2022/07/31 00:37:23;;;;;;;5.37;4.97;;;;;;;;;;5113021;28;20450;-60
2022/07/31 00:39:50;;;;;;;6.67;5.07;;;;;;;;;;5113322;28;20858;-60
2022/07/31 00:42:17;;;;;;;4.83;4.43;;;;;;;;;;5113159;28;20453;-60
2022/07/31 00:44:44;;;;;;;7.77;5.10;;;;;;;;;;5113146;28;20452;-60
2022/07/31 00:47:11;;;;;;;6.70;5.07;;;;;;;;;;5112949;28;20991;-61
2022/07/31 00:49:38;;;;;;;8.50;5.23;;;;;;;;;;5112881;28;20484;-60
2022/07/31 00:52:06;;;;;;;4.63;4.10;;;;;;;;;;5112963;28;20453;-60
2022/07/31 00:54:34;;;;;;;4.50;4.20;;;;;;;;;;5113030;28;20564;-60
2022/07/31 00:57:01;;;;;;;7.07;4.87;;;;;;;;;;5113201;28;20889;-60
2022/07/31 00:59:28;;;;;;;4.73;4.27;;;;;;;;;;5112946;28;20461;-61
2022/07/31 01:01:55;;;;;;;5.10;4.63;;;;;;;;;;5112933;28;20445;-60
2022/07/31 01:04:22;;;;;;;5.73;4.50;;;;;;;;;;5112815;28;20454;-60
2022/07/31 01:06:49;;;;;;;4.13;3.90;;;;;;;;;;5113055;28;20804;-60
2022/07/31 01:09:16;;;;;;;3.80;3.50;;;;;;;;;;5113213;28;20921;-60
2022/07/31 01:11:47;;;;;;;4.97;4.30;;;;;;;;;;5112880;28;20464;-60
2022/07/31 01:14:14;;;;;;;4.23;3.87;;;;;;;;;;5112854;28;20564;-60
2022/07/31 01:16:43;;;;;;;5.83;4.60;;;;;;;;;;5112855;28;20495;-60
2022/07/31 01:19:16;;;;;;;5.07;4.67;;;;;;;;;;5112634;28;20985;-60
2022/07/31 01:21:44;;;;;;;4.27;3.87;;;;;;;;;;5112854;28;20532;-60
2022/07/31 01:24:23;;;;;;;4.83;4.50;;;;;;;;;;5112733;28;20438;-60
2022/07/31 01:26:54;;;;;;;6.30;4.40;;;;;;;;;;5112786;28;20444;-60
2022/07/31 01:29:25;;;;;;;4.80;4.40;;;;;;;;;;5115422;28;20808;-60
2022/07/31 01:31:54;;;;;;;6.80;4.60;;;;;;;;;;5116483;28;20454;-60
2022/07/31 01:34:24;;;;;;;5.70;5.30;;;;;;;;;;5116258;28;20481;-60
2022/07/31 01:36:57;;;;;;;5.33;5.00;;;;;;;;;;5116292;28;20818;-60
2022/07/31 01:39:24;;;;;;;6.07;5.33;;;;;;;;;;5116136;28;20450;-60
2022/07/31 01:41:51;;;;;;;5.23;4.83;;;;;;;;;;5116005;28;20452;-60
2022/07/31 01:44:19;;;;;;;5.87;5.00;;;;;;;;;;5116283;28;20445;-60
2022/07/31 01:46:48;;;;;;;5.73;4.73;;;;;;;;;;5116158;28;20536;-60
2022/07/31 01:49:16;;;;;;;4.80;4.50;;;;;;;;;;5116031;28;20936;-60
2022/07/31 01:51:44;;;;;;;4.73;4.30;;;;;;;;;;5115840;28;20940;-60
2022/07/31 01:54:12;;;;;;;5.27;4.30;;;;;;;;;;5115737;28;20478;-60
2022/07/31 01:56:40;;;;;;;4.73;4.40;;;;;;;;;;5115594;28;20469;-60
2022/07/31 01:59:09;;;;;;;4.60;4.20;;;;;;;;;;5115926;28;20540;-60
2022/07/31 02:01:38;;;;;;;4.47;4.17;;;;;;;;;;5115767;28;20481;-60
2022/07/31 02:04:07;;;;;;;4.47;4.17;;;;;;;;;;5115783;28;20827;-60
2022/07/31 02:06:34;;;;;;;4.27;4.00;;;;;;;;;;5115638;28;20472;-60
2022/07/31 02:09:02;;;;;;;6.73;4.67;;;;;;;;;;5115529;28;20962;-60
2022/07/31 02:11:29;;;;;;;4.73;4.33;;;;;;;;;;5115828;28;20540;-60
2022/07/31 02:13:57;;;;;;;4.67;4.27;;;;;;;;;;5115551;28;20516;-60
2022/07/31 02:16:25;;;;;;;4.70;4.40;;;;;;;;;;5115592;28;20512;-60
2022/07/31 02:18:53;;;;;;;4.97;4.67;;;;;;;;;;5115395;28;20453;-60
2022/07/31 02:21:21;;;;;;;4.40;4.10;;;;;;;;;;5115318;28;20849;-61
2022/07/31 02:23:48;;;;;;;6.50;5.40;;;;;;;;;;5115298;28;21073;-60
2022/07/31 02:26:16;;;;;;;5.30;4.87;;;;;;;;;;5115456;28;20452;-60
2022/07/31 02:28:44;;;;;;;7.30;4.50;;;;;;;;;;5115272;28;20793;-60
2022/07/31 02:31:12;;;;;;;4.60;4.40;;;;;;;;;;5115156;28;20468;-60
2022/07/31 02:33:39;;;;;;;5.63;4.83;;;;;;;;;;5115046;28;20564;-60
2022/07/31 02:36:07;;;;;;;6.33;5.33;;;;;;;;;;5114899;28;20568;-60
2022/07/31 02:38:36;;;;;;;5.80;5.30;;;;;;;;;;5114870;28;20452;-60
2022/07/31 02:41:03;;;;;;;4.67;4.37;;;;;;;;;;5115035;28;20446;-60
2022/07/31 02:43:32;;;;;;;5.07;4.67;;;;;;;;;;5114954;28;20452;-60
2022/07/31 02:45:59;;;;;;;5.23;4.83;;;;;;;;;;5114847;28;20541;-60
2022/07/31 02:48:26;;;;;;;5.60;5.10;;;;;;;;;;5114761;28;20544;-60
2022/07/31 02:50:53;;;;;;;5.43;5.13;;;;;;;;;;5114649;28;20444;-60
2022/07/31 02:53:21;;;;;;;6.50;5.30;;;;;;;;;;5114798;28;20466;-60
2022/07/31 02:55:50;;;;;;;5.10;4.60;;;;;;;;;;5114593;28;20498;-60
2022/07/31 02:58:17;;;;;;;5.07;4.77;;;;;;;;;;5114739;28;20541;-60
2022/07/31 03:00:44;;;;;;;6.00;5.00;;;;;;;;;;5114664;28;20528;-60
2022/07/31 03:03:11;;;;;;;5.30;4.90;;;;;;;;;;5114317;28;20445;-60
2022/07/31 03:05:38;;;;;;;5.20;4.83;;;;;;;;;;5114466;28;20424;-60
2022/07/31 03:08:05;;;;;;;5.07;4.70;;;;;;;;;;5114640;28;20438;-60
2022/07/31 03:10:32;;;;;;;5.10;4.80;;;;;;;;;;5114450;28;20449;-60
2022/07/31 03:13:01;;;;;;;5.73;5.23;;;;;;;;;;5114259;28;20445;-60
2022/07/31 03:15:29;;;;;;;5.30;4.70;;;;;;;;;;5114236;28;20480;-60
2022/07/31 03:17:56;;;;;;;5.17;4.87;;;;;;;;;;5114171;28;20452;-60
2022/07/31 03:20:24;;;;;;;5.30;4.70;;;;;;;;;;5114385;28;20420;-60
2022/07/31 03:22:51;;;;;;;5.80;4.83;;;;;;;;;;5114104;28;21044;-60
2022/07/31 03:25:18;;;;;;;5.33;4.90;;;;;;;;;;5114186;28;21024;-60
2022/07/31 03:27:45;;;;;;;5.97;4.80;;;;;;;;;;5114044;28;20446;-60
2022/07/31 03:30:23;;;;;;;5.30;4.90;;;;;;;;;;5113908;28;20445;-60
2022/07/31 03:32:50;;;;;;;7.40;5.23;;;;;;;;;;5114143;28;20507;-60
2022/07/31 03:35:17;;;;;;;5.47;4.97;;;;;;;;;;5114012;28;20485;-60
2022/07/31 03:37:45;;;;;;;7.87;5.80;;;;;;;;;;5114102;28;20457;-60
2022/07/31 03:40:12;;;;;;;5.70;5.30;;;;;;;;;;5113893;28;20461;-60
2022/07/31 03:42:39;;;;;;;6.30;5.70;;;;;;;;;;5113923;28;20450;-60
2022/07/31 03:45:07;;;;;;;6.00;5.60;;;;;;;;;;5113913;28;20457;-60
2022/07/31 03:47:35;;;;;;;6.17;5.70;;;;;;;;;;5113722;28;20524;-60
2022/07/31 03:50:02;;;;;;;6.10;5.70;;;;;;;;;;5113591;28;20451;-60
2022/07/31 03:52:30;;;;;;;5.73;5.33;;;;;;;;;;5113191;28;20450;-60
2022/07/31 03:54:57;;;;;;;5.90;5.50;;;;;;;;;;5113646;28;20477;-60
2022/07/31 03:57:25;;;;;;;5.50;5.10;;;;;;;;;;5113329;28;20474;-60
2022/07/31 03:59:56;;;;;;;5.20;4.80;;;;;;;;;;5113599;28;20949;-60
2022/07/31 04:02:23;;;;;;;6.00;5.50;;;;;;;;;;5113816;28;20879;-60
2022/07/31 04:04:51;;;;;;;5.40;5.00;;;;;;;;;;5113780;28;20445;-60
2022/07/31 04:07:18;;;;;;;5.00;4.60;;;;;;;;;;5113557;28;20450;-60
2022/07/31 04:09:45;;;;;;;5.30;5.00;;;;;;;;;;5113435;28;20537;-60
2022/07/31 04:12:12;;;;;;;7.57;5.40;;;;;;;;;;5113560;28;20532;-60
2022/07/31 04:14:39;;;;;;;10.23;5.53;;;;;;;;;;5113513;28;20840;-60
2022/07/31 04:17:06;;;;;;;4.67;4.37;;;;;;;;;;5113511;28;20420;-60
2022/07/31 04:19:33;;;;;;;5.30;4.90;;;;;;;;;;5113376;28;20456;-60
2022/07/31 04:22:02;;;;;;;6.00;5.53;;;;;;;;;;5113222;28;20456;-60
2022/07/31 04:24:29;;;;;;;5.50;5.13;;;;;;;;;;5113158;28;20420;-60
2022/07/31 04:26:56;;;;;;;6.60;5.17;;;;;;;;;;5113328;28;20452;-60
2022/07/31 04:29:23;;;;;;;5.80;5.33;;;;;;;;;;5113107;28;20890;-60
2022/07/31 04:31:50;;;;;;;6.23;5.40;;;;;;;;;;5113159;28;20446;-60
2022/07/31 04:34:17;;;;;;;6.70;5.97;;;;;;;;;;5113044;28;20988;-60
2022/07/31 04:36:44;;;;;;;6.07;5.47;;;;;;;;;;5113121;28;20541;-60
2022/07/31 04:39:12;;;;;;;6.70;6.13;;;;;;;;;;5112994;28;20536;-60
2022/07/31 04:41:39;;;;;;;6.57;6.00;;;;;;;;;;5113242;28;20446;-60
2022/07/31 04:44:06;;;;;;;6.37;5.90;;;;;;;;;;5113161;28;20460;-60
2022/07/31 04:46:33;;;;;;;5.77;5.20;;;;;;;;;;5113135;28;20920;-60
2022/07/31 04:49:00;;;;;;;6.70;6.10;;;;;;;;;;5113049;28;20445;-60
2022/07/31 04:51:27;;;;;;;6.83;6.23;;;;;;;;;;5112970;28;20533;-60
2022/07/31 04:53:54;;;;;;;7.30;6.80;;;;;;;;;;5113099;28;20475;-60
2022/07/31 04:56:36;;;;;;;7.83;7.00;;;;;;;;;;5112700;28;20532;-60
2022/07/31 04:59:04;;;;;;;9.23;7.87;;;;;;;;;;5113001;28;20519;-60
2022/07/31 05:01:31;;;;;;;8.23;7.63;;;;;;;;;;5112968;28;20808;-60
2022/07/31 05:03:58;;;;;;;7.23;6.77;;;;;;;;;;5117271;28;20449;-60
2022/07/31 05:06:33;;;;;;;7.23;6.63;;;;;;;;;;5117008;28;20442;-60
2022/07/31 05:09:00;;;;;;;8.17;7.47;;;;;;;;;;5116959;28;20476;-60
2022/07/31 05:11:28;;;;;;;8.20;7.50;;;;;;;;;;5116796;28;20449;-60
2022/07/31 05:13:56;;;;;;;9.33;8.53;;;;;;;;;;5116602;28;20532;-60
2022/07/31 05:16:23;;;;;;;9.03;8.33;;;;;;;;;;5116552;28;20467;-60
2022/07/31 05:18:51;;;;;;;10.70;7.80;;;;;;;;;;5116779;28;20473;-60
2022/07/31 05:21:18;;;;;;;8.83;8.27;;;;;;;;;;5116674;28;20453;-60
2022/07/31 05:23:46;;;;;;;8.33;7.73;;;;;;;;;;5116644;28;20820;-60
2022/07/31 05:26:13;;;;;;;8.63;8.00;;;;;;;;;;5116455;28;20449;-60
2022/07/31 05:28:42;;;;;;;8.07;7.27;;;;;;;;;;5116280;28;20944;-60
2022/07/31 05:31:10;;;;;;;7.70;6.90;;;;;;;;;;5116074;28;20445;-60
2022/07/31 05:33:37;;;;;;;7.70;7.20;;;;;;;;;;5116471;28;20454;-60
2022/07/31 05:36:04;;;;;;;8.20;7.60;;;;;;;;;;5116255;28;20564;-60
2022/07/31 05:38:31;;;;;;;8.63;7.97;;;;;;;;;;5116269;28;20449;-60
2022/07/31 05:40:58;;;;;;;8.03;7.53;;;;;;;;;;5116133;28;20945;-60
2022/07/31 05:43:25;;;;;;;9.30;8.60;;;;;;;;;;5116037;28;20557;-60
2022/07/31 05:45:54;;;;;;;8.33;7.67;;;;;;;;;;5116236;28;20450;-60
2022/07/31 05:48:22;;;;;;;7.77;7.27;;;;;;;;;;5116083;28;20495;-60
2022/07/31 05:50:49;;;;;;;7.10;6.50;;;;;;;;;;5116015;28;20442;-60
2022/07/31 05:53:16;;;;;;;6.93;6.33;;;;;;;;;;5115899;28;20445;-60
2022/07/31 05:55:44;;;;;;;7.60;6.10;;;;;;;;;;5115715;28;21038;-60
2022/07/31 05:58:11;;;;;;;5.47;4.97;;;;;;;;;;5115556;28;20469;-60
2022/07/31 06:00:38;;;;;;;6.40;5.90;;;;;;;;;;5115924;28;20449;-60
2022/07/31 06:03:07;;;;;;;3.67;3.47;;;;;;;;;;5115656;28;20456;-60
2022/07/31 06:05:34;;;;;;;5.53;4.37;;;;;;;;;;5115724;28;20940;-60
2022/07/31 06:08:01;;;;;;;4.40;4.10;;;;;;;;;;5115677;28;20448;-60
2022/07/31 06:10:28;;;;;;;3.87;3.67;;;;;;;;;;5115565;28;20584;-60
2022/07/31 06:12:55;;;;;;;4.87;4.40;;;;;;;;;;5115480;28;20470;-60
2022/07/31 06:15:22;;;;;;;4.13;3.73;;;;;;;;;;5114909;28;20580;-60
2022/07/31 06:17:49;;;;;;;3.50;3.30;;;;;;;;;;5115529;28;20452;-60
2022/07/31 06:20:17;;;;;;;3.13;2.93;;;;;;;;;;5115525;28;20449;-60
2022/07/31 06:22:44;;;;;;;3.53;3.33;;;;;;;;;;5115320;28;20496;-60
2022/07/31 06:25:12;;;;;;;6.03;4.10;;;;;;;;;;5115085;28;20472;-60
2022/07/31 06:27:40;;;;;;;4.03;3.40;;;;;;;;;;5115455;28;20875;-60
2022/07/31 06:30:08;;;;;;;4.40;3.77;;;;;;;;;;5115325;28;20450;-60
2022/07/31 06:32:35;;;;;;;5.70;3.23;;;;;;;;;;5115322;28;20536;-60
2022/07/31 06:35:02;;;;;;;3.70;3.33;;;;;;;;;;5115230;28;20818;-60
2022/07/31 06:37:31;;;;;;;5.53;3.10;;;;;;;;;;5115030;28;20454;-60
2022/07/31 06:39:58;;;;;;;2.90;2.70;;;;;;;;;;5114953;28;20878;-60
2022/07/31 06:42:25;;;;;;;3.43;2.40;;;;;;;;;;5115190;28;20481;-60
2022/07/31 06:44:52;;;;;;;2.23;2.13;;;;;;;;;;5115094;28;20446;-60
2022/07/31 06:47:20;;;;;;;2.23;2.03;;;;;;;;;;5114971;28;20886;-60
2022/07/31 06:49:47;;;;;;;2.70;2.10;;;;;;;;;;5114844;28;20460;-60
2022/07/31 06:52:14;;;;;;;3.43;2.17;;;;;;;;;;5114666;28;20442;-61
2022/07/31 06:54:43;;;;;;;3.10;2.90;;;;;;;;;;5114871;28;20481;-61
2022/07/31 06:57:11;;;;;;;3.87;2.53;;;;;;;;;;5114604;28;20478;-60
2022/07/31 06:59:38;;;;;;;2.70;2.50;;;;;;;;;;5114795;28;20452;-60
2022/07/31 07:02:05;;;;;;;2.63;2.43;;;;;;;;;;5114684;28;20450;-60
2022/07/31 07:04:32;;;;;;;5.43;3.07;;;;;;;;;;5114442;28;20452;-60
2022/07/31 07:06:58;;;;;;;2.43;1.90;;;;;;;;;;5114426;28;20452;-62
2022/07/31 07:09:25;;;;;;;3.20;1.77;;;;;;;;;;5114657;28;20453;-61
2022/07/31 07:11:54;;;;;;;2.30;2.20;;;;;;;;;;5114358;28;20999;-60
2022/07/31 07:14:20;;;;;;;2.67;2.40;;;;;;;;;;5114359;28;20497;-60
2022/07/31 07:16:47;;;;;;;4.13;2.60;;;;;;;;;;5114277;28;20446;-60
2022/07/31 07:19:14;;;;;;;2.73;2.53;;;;;;;;;;5114279;28;20445;-60
2022/07/31 07:21:41;;;;;;;4.90;2.93;;;;;;;;;;5114206;28;20532;-60
2022/07/31 07:24:08;;;;;;;3.20;3.00;;;;;;;;;;5114334;28;20446;-60
2022/07/31 07:26:35;;;;;;;2.47;2.27;;;;;;;;;;5113308;28;20532;-60
2022/07/31 07:29:03;;;;;;;3.17;2.73;;;;;;;;;;5114137;28;20956;-60
2022/07/31 07:31:30;;;;;;;2.60;2.40;;;;;;;;;;5113915;28;20925;-60
2022/07/31 07:33:57;;;;;;;2.63;2.43;;;;;;;;;;5113843;28;20442;-60
2022/07/31 07:36:24;;;;;;;2.70;2.50;;;;;;;;;;5113996;28;20487;-60
2022/07/31 07:38:52;;;;;;;2.50;2.40;;;;;;;;;;5113956;28;20544;-60
2022/07/31 07:41:19;;;;;;;3.07;2.77;;;;;;;;;;5113847;28;20453;-61
2022/07/31 07:43:46;;;;;;;3.60;2.67;;;;;;;;;;5113724;28;20449;-60
2022/07/31 07:46:14;;;;;;;2.90;2.70;;;;;;;;;;5113642;28;20454;-60
2022/07/31 07:48:41;;;;;;;4.50;3.33;;;;;;;;;;5113602;28;20452;-60
2022/07/31 07:51:08;;;;;;;3.33;3.13;;;;;;;;;;5113898;28;20560;-60
2022/07/31 07:53:35;;;;;;;4.70;4.30;;;;;;;;;;5113682;28;20456;-60
2022/07/31 07:56:02;;;;;;;4.43;3.03;;;;;;;;;;5113310;28;20841;-60
2022/07/31 07:58:29;;;;;;;4.23;2.90;;;;;;;;;;5113603;28;20895;-60
2022/07/31 08:00:56;;;;;;;3.93;3.30;;;;;;;;;;5113210;28;20593;-60
2022/07/31 08:03:24;;;;;;;2.90;2.63;;;;;;;;;;5113216;28;20446;-60
2022/07/31 08:05:51;;;;;;;2.93;2.60;;;;;;;;;;5113420;28;20446;-60
2022/07/31 08:08:18;;;;;;;3.37;3.17;;;;;;;;;;5113330;28;21027;-60
2022/07/31 08:10:45;;;;;;;4.60;3.57;;;;;;;;;;5113377;28;20532;-60
2022/07/31 08:13:13;;;;;;;4.17;3.77;;;;;;;;;;5113302;28;20787;-60
2022/07/31 08:15:40;;;;;;;3.60;3.30;;;;;;;;;;5113094;28;20473;-60
2022/07/31 08:18:07;;;;;;;3.40;3.20;;;;;;;;;;5113422;28;20544;-60
2022/07/31 08:20:36;;;;;;;4.20;3.70;;;;;;;;;;5113382;28;20445;-60
2022/07/31 08:23:03;;;;;;;3.17;2.97;;;;;;;;;;5113269;28;20477;-60
2022/07/31 08:25:30;;;;;;;3.80;3.43;;;;;;;;;;5113150;28;20960;-60
2022/07/31 08:27:57;;;;;;;4.33;3.93;;;;;;;;;;5113217;28;20480;-60
2022/07/31 08:30:25;;;;;;;5.30;3.70;;;;;;;;;;5113164;28;20533;-60
2022/07/31 08:32:52;;;;;;;3.80;3.50;;;;;;;;;;5113287;28;20535;-60
2022/07/31 08:35:19;;;;;;;5.73;3.43;;;;;;;;;;5113244;28;20886;-60
2022/07/31 08:37:48;;;;;;;3.90;3.60;;;;;;;;;;5115452;28;20533;-60
2022/07/31 08:40:15;;;;;;;3.67;3.40;;;;;;;;;;5117337;28;20449;-60
2022/07/31 08:42:41;;;;;;;4.50;4.10;;;;;;;;;;5117192;28;20449;-60
2022/07/31 08:45:09;;;;;;;4.00;3.70;;;;;;;;;;5117366;28;20449;-60
2022/07/31 08:47:36;;;;;;;3.40;3.10;;;;;;;;;;5117245;28;20454;-60
2022/07/31 08:50:05;;;;;;;4.73;3.87;;;;;;;;;;5117270;28;20907;-60
2022/07/31 08:52:34;;;;;;;3.43;3.13;;;;;;;;;;5117034;28;20446;-60
2022/07/31 08:55:06;;;;;;;3.60;3.30;;;;;;;;;;5116872;28;20684;-60
2022/07/31 08:57:34;;;;;;;3.40;3.20;;;;;;;;;;5116682;28;20875;-60
2022/07/31 09:00:01;;;;;;;3.20;3.00;;;;;;;;;;5116960;28;20461;-60
2022/07/31 09:02:28;;;;;;;3.00;2.80;;;;;;;;;;5116995;28;20533;-60
2022/07/31 09:04:55;;;;;;;3.33;3.03;;;;;;;;;;5116806;28;20471;-60
2022/07/31 09:07:22;;;;;;;2.80;2.60;;;;;;;;;;5116744;28;20536;-60
2022/07/31 09:09:49;;;;;;;3.50;3.30;;;;;;;;;;5116662;28;20944;-60
2022/07/31 09:12:28;;;;;;;4.47;3.30;;;;;;;;;;5116805;28;20442;-60
2022/07/31 09:14:54;;;;;;;4.33;3.30;;;;;;;;;;5116636;28;20451;-60
2022/07/31 09:17:31;;;;;;;3.53;3.23;;;;;;;;;;5116581;28;20909;-60
2022/07/31 09:19:58;;;;;;;3.30;3.00;;;;;;;;;;5116602;28;20445;-60
2022/07/31 09:22:26;;;;;;;5.33;3.07;;;;;;;;;;5116329;28;20457;-60
2022/07/31 09:24:53;;;;;;;3.23;3.03;;;;;;;;;;5116415;28;20951;-60
2022/07/31 09:27:20;;;;;;;3.37;3.17;;;;;;;;;;5116470;28;20445;-60
2022/07/31 09:29:49;;;;;;;3.63;2.97;;;;;;;;;;5116421;28;20442;-60
2022/07/31 09:32:17;;;;;;;3.20;2.90;;;;;;;;;;5116275;28;20441;-60
2022/07/31 09:34:44;;;;;;;3.50;3.20;;;;;;;;;;5116168;28;20533;-60
2022/07/31 09:37:11;;;;;;;2.97;2.77;;;;;;;;;;5116308;28;20561;-60
2022/07/31 09:39:39;;;;;;;3.37;3.17;;;;;;;;;;5116358;28;20902;-60
2022/07/31 09:42:06;;;;;;;3.50;3.00;;;;;;;;;;5116116;28;20540;-60
2022/07/31 09:44:38;;;;;;;3.77;2.60;;;;;;;;;;5115810;28;20598;-59
2022/07/31 09:47:06;;;;;;;3.33;3.03;;;;;;;;;;5115874;28;20453;-60
2022/07/31 09:49:34;;;;;;;2.83;2.63;;;;;;;;;;5114631;28;20458;-60
2022/07/31 09:52:01;;;;;;;3.10;2.80;;;;;;;;;;5115970;28;20790;-60
2022/07/31 09:54:30;;;;;;;3.33;2.83;;;;;;;;;;5115895;28;20450;-60
2022/07/31 09:56:57;;;;;;;2.97;2.70;;;;;;;;;;5115593;28;20481;-60
2022/07/31 09:59:25;;;;;;;3.10;2.90;;;;;;;;;;5115771;28;20448;-60
2022/07/31 10:01:52;;;;;;;3.60;2.90;;;;;;;;;;5115641;28;20450;-60
2022/07/31 10:04:21;;;;;;;3.13;2.83;;;;;;;;;;5115854;28;20446;-60
2022/07/31 10:06:49;;;;;;;3.57;3.20;;;;;;;;;;5115893;28;20449;-60
2022/07/31 10:09:17;;;;;;;2.80;2.70;;;;;;;;;;5115614;28;20449;-60
2022/07/31 10:11:45;;;;;;;2.77;2.57;;;;;;;;;;5115348;28;20456;-60
2022/07/31 10:14:15;;;;;;;3.13;2.83;;;;;;;;;;5115491;28;20452;-60
2022/07/31 10:16:44;;;;;;;3.30;3.00;;;;;;;;;;5115317;28;20564;-60
2022/07/31 10:19:13;;;;;;;2.37;2.27;;;;;;;;;;5115285;28;20936;-60
2022/07/31 10:21:42;;;;;;;2.70;2.50;;;;;;;;;;5115444;28;20536;-60
2022/07/31 10:24:10;;;;;;;4.90;2.63;;;;;;;;;;5115225;28;20445;-59
2022/07/31 10:26:37;;;;;;;3.60;3.37;;;;;;;;;;5115322;28;20445;-60
2022/07/31 10:29:04;;;;;;;3.30;3.00;;;;;;;;;;5115079;28;20441;-61
2022/07/31 10:31:32;;;;;;;3.47;3.17;;;;;;;;;;5115200;28;20804;-60
2022/07/31 10:33:59;;;;;;;3.90;3.10;;;;;;;;;;5115035;28;20932;-60
2022/07/31 10:36:28;;;;;;;2.70;2.60;;;;;;;;;;5115016;28;20477;-60
2022/07/31 10:38:59;;;;;;;3.50;2.30;;;;;;;;;;5114872;28;20544;-60
2022/07/31 10:41:32;;;;;;;6.13;4.07;;;;;;;;;;5114862;28;20448;-60
2022/07/31 10:44:01;;;;;;;3.27;3.00;;;;;;;;;;5115020;28;20441;-60
2022/07/31 10:46:28;;;;;;;2.90;2.70;;;;;;;;;;5114992;28;20448;-60
2022/07/31 10:48:55;;;;;;;4.00;2.63;;;;;;;;;;5114772;28;20481;-60
2022/07/31 10:51:23;;;;;;;3.30;3.00;;;;;;;;;;5114682;28;20438;-60
2022/07/31 10:53:54;;;;;;;3.23;2.90;;;;;;;;;;5114626;28;20834;-60
2022/07/31 10:56:22;;;;;;;2.90;2.73;;;;;;;;;;5114263;28;20484;-59
2022/07/31 10:58:50;;;;;;;3.90;2.53;;;;;;;;;;5114727;28;20450;-60
2022/07/31 11:01:17;;;;;;;3.00;2.80;;;;;;;;;;5114460;28;20492;-60
2022/07/31 11:03:45;;;;;;;3.00;2.80;;;;;;;;;;5114499;28;20452;-60
2022/07/31 11:06:15;;;;;;;3.50;3.20;;;;;;;;;;5114358;28;20921;-60
2022/07/31 11:08:42;;;;;;;3.77;3.27;;;;;;;;;;5114239;28;20480;-60
2022/07/31 11:11:09;;;;;;;3.07;2.87;;;;;;;;;;5114450;28;20532;-60
2022/07/31 11:13:46;;;;;;;3.10;2.47;;;;;;;;;;5114404;28;20856;-60
2022/07/31 11:16:14;;;;;;;2.93;2.73;;;;;;;;;;5114201;28;20475;-60
2022/07/31 11:18:41;;;;;;;7.90;2.90;;;;;;;;;;5114179;28;20450;-60
2022/07/31 11:21:09;;;;;;;7.10;3.00;;;;;;;;;;5114136;28;20481;-60
2022/07/31 11:23:36;;;;;;;3.37;3.07;;;;;;;;;;5114013;28;20446;-60
2022/07/31 11:26:05;;;;;;;2.70;2.60;;;;;;;;;;5113813;28;20997;-60
2022/07/31 11:28:32;;;;;;;2.50;2.40;;;;;;;;;;5113780;28;20932;-59
2022/07/31 11:31:01;;;;;;;3.87;3.03;;;;;;;;;;5113898;28;20545;-60
2022/07/31 11:33:39;;;;;;;3.17;2.97;;;;;;;;;;5113914;28;20800;-60
2022/07/31 11:36:07;;;;;;;3.17;2.90;;;;;;;;;;5113737;28;20480;-59
2022/07/31 11:38:34;;;;;;;3.17;2.87;;;;;;;;;;5113916;28;20445;-60
2022/07/31 11:41:01;;;;;;;3.23;3.03;;;;;;;;;;5113907;28;20493;-60
2022/07/31 11:43:28;;;;;;;3.20;2.90;;;;;;;;;;5113650;28;20460;-60
2022/07/31 11:45:55;;;;;;;3.43;3.17;;;;;;;;;;5113589;28;20453;-60
2022/07/31 11:48:24;;;;;;;3.40;3.10;;;;;;;;;;5113522;28;20452;-60
2022/07/31 11:50:51;;;;;;;2.80;2.60;;;;;;;;;;5113653;28;20441;-60
2022/07/31 11:53:19;;;;;;;5.17;3.20;;;;;;;;;;5113391;28;20563;-60
2022/07/31 11:55:48;;;;;;;3.10;2.90;;;;;;;;;;5113319;28;20442;-61
2022/07/31 11:58:15;;;;;;;4.10;3.70;;;;;;;;;;5113459;28;20457;-60
2022/07/31 12:00:46;;;;;;;3.43;2.73;;;;;;;;;;5113407;28;20532;-59
2022/07/31 12:03:13;;;;;;;3.70;2.97;;;;;;;;;;5113563;28;20453;-60
2022/07/31 12:05:45;;;;;;;5.10;2.80;;;;;;;;;;5113539;28;20481;-60
2022/07/31 12:08:13;;;;;;;3.00;2.50;;;;;;;;;;5113464;28;20460;-60
2022/07/31 12:10:40;;;;;;;3.07;2.87;;;;;;;;;;5113315;28;20513;-60
2022/07/31 12:13:10;;;;;;;2.77;2.57;;;;;;;;;;5112602;28;20537;-60
2022/07/31 12:15:38;;;;;;;3.00;2.80;;;;;;;;;;5113417;28;20450;-60
2022/07/31 12:18:05;;;;;;;3.20;3.00;;;;;;;;;;5113376;28;20558;-60
2022/07/31 12:20:32;;;;;;;2.67;2.47;;;;;;;;;;5113286;28;20540;-60
2022/07/31 12:23:01;;;;;;;2.53;2.43;;;;;;;;;;5113203;28;20453;-60
2022/07/31 12:25:28;;;;;;;3.57;3.17;;;;;;;;;;5113192;28;20445;-61
2022/07/31 12:27:55;;;;;;;2.67;2.37;;;;;;;;;;5113062;28;20478;-60
2022/07/31 12:30:23;;;;;;;4.87;2.47;;;;;;;;;;5113264;28;20446;-60
2022/07/31 12:32:50;;;;;;;3.40;2.67;;;;;;;;;;5113190;28;20449;-60
2022/07/31 12:35:17;;;;;;;2.90;2.70;;;;;;;;;;5113131;28;20447;-58
2022/07/31 12:37:48;;;;;;;4.03;2.67;;;;;;;;;;5112824;28;20481;-58
2022/07/31 12:40:23;;;;;;;3.00;2.80;;;;;;;;;;5112936;28;20445;-60
2022/07/31 12:42:50;;;;;;;5.60;2.93;;;;;;;;;;5113256;28;20600;-60
2022/07/31 12:45:17;;;;;;;3.23;3.03;;;;;;;;;;5113152;28;20928;-60
2022/07/31 12:47:44;;;;;;;3.30;3.00;;;;;;;;;;5112928;28;20580;-60
2022/07/31 12:50:11;;;;;;;3.23;3.03;;;;;;;;;;5113073;28;20491;-60
2022/07/31 12:52:38;;;;;;;2.70;2.50;;;;;;;;;;5112837;28;20533;-60
2022/07/31 12:55:06;;;;;;;2.70;2.50;;;;;;;;;;5113090;28;20792;-60
2022/07/31 12:57:34;;;;;;;3.07;2.87;;;;;;;;;;5112559;28;20968;-60
2022/07/31 13:00:01;;;;;;;2.50;2.30;;;;;;;;;;5112973;28;20865;-60
2022/07/31 13:02:28;;;;;;;3.03;2.63;;;;;;;;;;5112883;28;20453;-60
2022/07/31 13:04:55;;;;;;;3.40;3.10;;;;;;;;;;5112727;28;20446;-60
2022/07/31 13:07:22;;;;;;;2.83;2.50;;;;;;;;;;5112766;28;20441;-60
2022/07/31 13:09:49;;;;;;;2.87;2.67;;;;;;;;;;5112915;28;20525;-60
2022/07/31 13:12:15;;;;;;;2.93;2.80;;;;;;;;;;5112944;28;20441;-60
2022/07/31 13:14:44;;;;;;;4.07;2.70;;;;;;;;;;5112805;28;20808;-60
2022/07/31 13:17:11;;;;;;;2.73;2.53;;;;;;;;;;5112982;28;20473;-59
2022/07/31 13:19:37;;;;;;;4.37;3.40;;;;;;;;;;5112485;28;20446;-60
2022/07/31 13:22:04;;;;;;;3.70;2.77;;;;;;;;;;5112534;28;20812;-60
2022/07/31 13:24:31;;;;;;;3.77;2.60;;;;;;;;;;5115829;28;20446;-60
2022/07/31 13:27:00;;;;;;;3.40;3.10;;;;;;;;;;5116455;28;20502;-60
2022/07/31 13:29:27;;;;;;;6.20;3.50;;;;;;;;;;5116403;28;20445;-60
2022/07/31 13:31:55;;;;;;;3.03;2.70;;;;;;;;;;5116337;28;20876;-60
2022/07/31 13:34:22;;;;;;;3.57;3.37;;;;;;;;;;5116088;28;20945;-60
2022/07/31 13:36:49;;;;;;;2.80;2.43;;;;;;;;;;5116398;28;20481;-60
2022/07/31 13:39:16;;;;;;;3.73;3.00;;;;;;;;;;5116333;28;20451;-60
2022/07/31 13:41:43;;;;;;;3.90;3.47;;;;;;;;;;5116160;28;20446;-60
2022/07/31 13:44:10;;;;;;;5.43;2.80;;;;;;;;;;5116199;28;20442;-60
2022/07/31 13:46:37;;;;;;;4.57;3.10;;;;;;;;;;5115980;28;20449;-60
2022/07/31 13:49:08;;;;;;;4.40;3.10;;;;;;;;;;5115587;28;20452;-60
2022/07/31 13:51:35;;;;;;;4.13;2.50;;;;;;;;;;5116019;28;20449;-60
2022/07/31 13:54:02;;;;;;;2.70;2.50;;;;;;;;;;5115906;28;20448;-60
2022/07/31 13:56:28;;;;;;;2.90;2.70;;;;;;;;;;5115395;28;20473;-60
2022/07/31 13:58:55;;;;;;;3.87;2.63;;;;;;;;;;5115817;28;20574;-60
2022/07/31 14:01:22;;;;;;;3.10;2.90;;;;;;;;;;5115730;28;20762;-59
2022/07/31 14:03:49;;;;;;;3.60;3.30;;;;;;;;;;5115613;28;20544;-60
2022/07/31 14:06:18;;;;;;;2.90;2.60;;;;;;;;;;5115759;28;20863;-60
2022/07/31 14:08:45;;;;;;;3.63;2.57;;;;;;;;;;5115652;28;20457;-60
2022/07/31 14:11:12;;;;;;;4.17;2.90;;;;;;;;;;5115654;28;20454;-60
2022/07/31 14:13:39;;;;;;;2.43;2.23;;;;;;;;;;5115452;28;20528;-60
2022/07/31 14:16:06;;;;;;;2.70;2.50;;;;;;;;;;5115357;28;20913;-60
2022/07/31 14:18:33;;;;;;;2.80;2.60;;;;;;;;;;5115613;28;20477;-60
2022/07/31 14:20:59;;;;;;;2.50;2.30;;;;;;;;;;5115842;28;20449;-60
2022/07/31 14:23:28;;;;;;;2.70;2.50;;;;;;;;;;5115437;28;20448;-60
2022/07/31 14:25:55;;;;;;;6.03;2.80;;;;;;;;;;5115287;28;20528;-60
2022/07/31 14:28:23;;;;;;;3.23;3.03;;;;;;;;;;5115169;28;20553;-60
2022/07/31 14:30:50;;;;;;;2.50;2.30;;;;;;;;;;5115052;28;20441;-60
2022/07/31 14:33:17;;;;;;;9.77;3.20;;;;;;;;;;5115247;28;20472;-60
2022/07/31 14:35:44;;;;;;;2.90;2.70;;;;;;;;;;5114661;28;20452;-60
2022/07/31 14:38:11;;;;;;;2.83;2.73;;;;;;;;;;5114793;28;20964;-60
2022/07/31 14:40:39;;;;;;;4.80;2.87;;;;;;;;;;5114895;28;20446;-60
2022/07/31 14:43:08;;;;;;;3.30;2.67;;;;;;;;;;5114692;28;20884;-60
2022/07/31 14:45:35;;;;;;;2.67;2.50;;;;;;;;;;5114966;28;20881;-60